createdAt,value
2022-08-28T00:01:10.743Z,49.13
2022-08-28T00:03:43.377Z,43.10
2022-08-28T00:06:15.156Z,47.87
2022-08-28T00:08:46.956Z,45.63
2022-08-28T00:11:21.066Z,44.40
2022-08-28T00:13:52.811Z,43.80
2022-08-28T00:16:24.870Z,41.13
2022-08-28T00:18:58.363Z,42.83
2022-08-28T00:21:31.479Z,35.53
2022-08-28T00:24:03.460Z,45.17
2022-08-28T00:26:53.962Z,37.93
2022-08-28T00:29:25.721Z,34.90
2022-08-28T00:31:57.703Z,40.53
2022-08-28T00:34:29.646Z,38.23
2022-08-28T00:37:05.948Z,33.00
2022-08-28T00:39:37.689Z,37.70
2022-08-28T00:42:10.163Z,34.53
2022-08-28T00:44:41.995Z,37.57
2022-08-28T00:47:14.020Z,36.13
2022-08-28T00:49:51.180Z,33.40
2022-08-28T00:52:26.905Z,37.17
2022-08-28T00:55:13.638Z,37.00
2022-08-28T00:57:54.953Z,37.23
2022-08-28T01:00:34.422Z,42.93
2022-08-28T01:03:07.048Z,39.83
2022-08-28T01:05:40.197Z,35.10
2022-08-28T01:08:12.894Z,37.47
2022-08-28T01:10:49.651Z,37.03
2022-08-28T01:13:22.473Z,34.00
2022-08-28T01:15:55.160Z,44.13
2022-08-28T01:18:27.952Z,37.27
2022-08-28T01:21:20.633Z,37.43
2022-08-28T01:23:58.106Z,34.23
2022-08-28T01:26:29.986Z,34.13
2022-08-28T01:29:02.319Z,29.87
2022-08-28T01:31:35.662Z,33.73
2022-08-28T01:34:09.375Z,33.67
2022-08-28T01:36:42.551Z,32.63
2022-08-28T01:39:23.804Z,32.37
2022-08-28T01:41:57.003Z,35.07
2022-08-28T01:44:28.790Z,33.47
2022-08-28T01:47:00.561Z,32.50
2022-08-28T01:49:32.358Z,31.00
2022-08-28T01:52:04.725Z,32.40
2022-08-28T01:54:36.552Z,31.27
2022-08-28T01:57:10.895Z,31.00
2022-08-28T01:59:42.671Z,29.67
2022-08-28T02:02:15.279Z,32.17
2022-08-28T02:04:48.306Z,37.87
2022-08-28T02:07:20.432Z,33.87
2022-08-28T02:09:52.698Z,34.20
2022-08-28T02:12:25.127Z,38.40
2022-08-28T02:14:56.886Z,44.50
2022-08-28T02:17:28.706Z,37.03
2022-08-28T02:20:00.469Z,40.00
2022-08-28T02:22:32.203Z,34.57
2022-08-28T02:25:05.374Z,36.27
2022-08-28T02:27:38.307Z,32.07
2022-08-28T02:30:11.974Z,41.67
2022-08-28T02:32:45.952Z,38.07
2022-08-28T02:35:18.806Z,35.77
2022-08-28T02:37:51.490Z,42.50
2022-08-28T02:40:26.484Z,38.43
2022-08-28T02:42:58.262Z,42.30
2022-08-28T02:45:30.092Z,42.20
2022-08-28T02:48:02.637Z,43.90
2022-08-28T02:50:34.440Z,40.07
2022-08-28T02:53:06.147Z,38.83
2022-08-28T02:55:37.938Z,43.90
2022-08-28T02:58:10.130Z,41.60
2022-08-28T03:00:42.047Z,41.67
2022-08-28T03:03:14.134Z,47.30
2022-08-28T03:05:45.860Z,49.37
2022-08-28T03:08:17.715Z,45.97
2022-08-28T03:10:49.464Z,46.60
2022-08-28T03:13:26.430Z,47.97
2022-08-28T03:15:59.378Z,47.77
2022-08-28T03:18:33.008Z,45.53
2022-08-28T03:21:05.106Z,37.03
2022-08-28T03:23:37.585Z,41.20
2022-08-28T03:26:10.692Z,42.33
2022-08-28T03:28:51.127Z,41.47
2022-08-28T03:31:26.234Z,41.13
2022-08-28T03:33:58.244Z,44.60
2022-08-28T03:36:30.270Z,38.47
2022-08-28T03:39:05.630Z,44.87
2022-08-28T03:41:37.401Z,42.93
2022-08-28T03:44:09.410Z,41.13
2022-08-28T03:46:41.131Z,42.00
2022-08-28T03:49:13.475Z,41.90
2022-08-28T03:51:45.271Z,44.37
2022-08-28T03:54:17.001Z,46.97
2022-08-28T03:56:48.813Z,43.47
2022-08-28T03:59:21.505Z,46.50
2022-08-28T04:01:58.450Z,44.20
2022-08-28T04:04:30.224Z,42.27
2022-08-28T04:07:01.929Z,39.63
2022-08-28T04:09:33.713Z,41.90
2022-08-28T04:12:06.378Z,42.30
2022-08-28T04:14:38.521Z,40.40
2022-08-28T04:17:11.208Z,44.07
2022-08-28T04:19:44.899Z,39.20
2022-08-28T04:22:16.590Z,41.73
2022-08-28T04:24:49.606Z,41.00
2022-08-28T04:27:21.411Z,42.83
2022-08-28T04:29:53.129Z,39.07
2022-08-28T04:32:25.220Z,42.00
2022-08-28T04:34:57.042Z,40.23
2022-08-28T04:37:28.793Z,36.80
2022-08-28T04:40:01.682Z,37.13
2022-08-28T04:42:33.413Z,35.10
2022-08-28T04:45:06.466Z,37.33
2022-08-28T04:47:38.799Z,35.87
2022-08-28T04:50:11.409Z,36.20
2022-08-28T04:52:43.460Z,36.53
2022-08-28T04:55:15.214Z,37.50
2022-08-28T04:57:50.012Z,37.47
2022-08-28T05:00:23.657Z,37.15
2022-08-28T05:02:55.419Z,34.97
2022-08-28T05:05:27.194Z,37.70
2022-08-28T05:07:58.910Z,32.37
2022-08-28T05:10:30.621Z,38.90
2022-08-28T05:13:02.331Z,35.90
2022-08-28T05:15:38.041Z,32.90
2022-08-28T05:18:10.019Z,41.30
2022-08-28T05:20:44.639Z,46.50
2022-08-28T05:23:16.927Z,39.47
2022-08-28T05:25:48.845Z,45.83
2022-08-28T05:28:21.123Z,39.03
2022-08-28T05:30:53.315Z,41.70
2022-08-28T05:33:25.088Z,36.17
2022-08-28T05:35:56.818Z,41.87
2022-08-28T05:38:28.679Z,49.60
2022-08-28T05:41:01.538Z,41.57
2022-08-28T05:43:33.367Z,40.90
2022-08-28T05:46:10.466Z,49.43
2022-08-28T05:48:43.426Z,48.57
2022-08-28T05:51:19.397Z,49.67
2022-08-28T05:53:51.222Z,42.63
2022-08-28T05:56:29.896Z,43.67
2022-08-28T05:59:03.650Z,45.10
2022-08-28T06:01:40.445Z,40.40
2022-08-28T06:04:19.023Z,46.60
2022-08-28T06:06:50.936Z,34.37
2022-08-28T06:09:29.576Z,40.83
2022-08-28T06:12:02.773Z,33.17
2022-08-28T06:14:34.923Z,41.00
2022-08-28T06:17:07.177Z,37.60
2022-08-28T06:19:41.534Z,33.73
2022-08-28T06:22:14.794Z,37.17
2022-08-28T06:24:46.533Z,40.33
2022-08-28T06:27:18.289Z,38.37
2022-08-28T06:29:50.064Z,39.33
2022-08-28T06:32:21.817Z,34.20
2022-08-28T06:34:53.954Z,40.83
2022-08-28T06:37:26.446Z,34.50
2022-08-28T06:39:58.514Z,33.17
2022-08-28T06:42:31.271Z,30.33
2022-08-28T06:45:03.225Z,35.27
2022-08-28T06:47:34.925Z,35.43
2022-08-28T06:50:07.635Z,35.63
2022-08-28T06:52:39.353Z,35.43
2022-08-28T06:55:13.610Z,37.67
2022-08-28T06:57:47.202Z,37.10
2022-08-28T07:00:19.014Z,35.13
2022-08-28T07:02:50.897Z,32.27
2022-08-28T07:05:23.039Z,44.17
2022-08-28T07:07:55.834Z,35.10
2022-08-28T07:10:31.306Z,34.13
2022-08-28T07:13:04.896Z,35.33
2022-08-28T07:15:41.931Z,32.30
2022-08-28T07:18:14.092Z,30.13
2022-08-28T07:20:54.628Z,39.47
2022-08-28T07:23:28.044Z,34.10
2022-08-28T07:26:00.379Z,39.80
2022-08-28T07:28:32.824Z,42.07
2022-08-28T07:31:10.698Z,36.23
2022-08-28T07:33:43.633Z,40.93
2022-08-28T07:36:29.253Z,37.73
2022-08-28T07:39:01.309Z,43.20
2022-08-28T07:41:35.522Z,28.30
2022-08-28T07:44:27.347Z,33.40
2022-08-28T07:47:03.960Z,37.63
2022-08-28T07:49:35.933Z,36.50
2022-08-28T07:52:09.226Z,38.60
2022-08-28T07:54:41.025Z,34.43
2022-08-28T07:57:12.739Z,28.90
2022-08-28T07:59:44.637Z,29.27
2022-08-28T08:02:16.636Z,24.70
2022-08-28T08:04:48.405Z,31.83
2022-08-28T08:07:20.498Z,31.50
2022-08-28T08:09:52.436Z,24.70
2022-08-28T08:12:24.142Z,27.57
2022-08-28T08:14:56.702Z,25.87
2022-08-28T08:17:28.578Z,23.15
2022-08-28T08:20:01.129Z,27.53
2022-08-28T08:22:33.803Z,34.20
2022-08-28T08:25:06.138Z,22.17
2022-08-28T08:27:42.382Z,21.70
2022-08-28T08:30:14.909Z,25.73
2022-08-28T08:32:46.695Z,23.10
2022-08-28T08:35:18.596Z,21.30
2022-08-28T08:37:50.323Z,16.97
2022-08-28T08:40:22.203Z,20.27
2022-08-28T08:42:57.087Z,21.40
2022-08-28T08:45:31.060Z,19.77
2022-08-28T08:48:03.434Z,19.47
2022-08-28T08:50:35.968Z,18.27
2022-08-28T08:53:25.842Z,22.33
2022-08-28T08:55:58.240Z,17.80
2022-08-28T08:58:47.775Z,21.40
2022-08-28T09:01:37.047Z,24.50
2022-08-28T09:04:39.803Z,21.97
2022-08-28T09:07:19.536Z,25.10
2022-08-28T09:09:53.815Z,17.47
2022-08-28T09:12:31.525Z,16.60
2022-08-28T09:15:10.568Z,20.17
2022-08-28T09:17:50.999Z,21.17
2022-08-28T09:20:32.992Z,17.27
2022-08-28T09:23:12.834Z,19.87
2022-08-28T09:25:48.656Z,16.50
2022-08-28T09:28:34.353Z,18.23
2022-08-28T09:31:15.798Z,24.17
2022-08-28T09:33:52.541Z,17.80
2022-08-28T09:36:37.195Z,22.10
2022-08-28T09:39:17.226Z,23.20
2022-08-28T09:42:40.417Z,18.53
2022-08-28T09:45:21.116Z,17.90
2022-08-28T09:48:00.682Z,18.50
2022-08-28T09:50:43.433Z,12.87
2022-08-28T09:53:19.248Z,17.60
2022-08-28T09:55:50.959Z,15.40
2022-08-28T09:58:42.807Z,15.73
2022-08-28T10:01:44.941Z,18.33
2022-08-28T10:04:25.896Z,16.95
2022-08-28T10:07:09.294Z,12.60
2022-08-28T10:10:17.246Z,13.20
2022-08-28T10:13:17.159Z,11.50
2022-08-28T10:16:00.888Z,12.43
2022-08-28T10:18:43.518Z,10.57
2022-08-28T10:21:25.138Z,10.75
2022-08-28T10:24:07.969Z,11.87
2022-08-28T10:26:48.322Z,22.73
2022-08-28T10:30:08.836Z,13.47
2022-08-28T10:33:08.120Z,13.33
2022-08-28T10:36:33.842Z,13.27
2022-08-28T10:39:34.699Z,11.70
2022-08-28T10:42:07.518Z,12.00
2022-08-28T10:44:50.352Z,13.10
2022-08-28T10:47:25.727Z,13.17
2022-08-28T10:50:04.604Z,12.10
2022-08-28T10:52:41.969Z,13.97
2022-08-28T10:55:32.304Z,12.40
2022-08-28T10:58:23.888Z,11.70
2022-08-28T11:01:05.994Z,13.23
2022-08-28T11:03:46.599Z,11.40
2022-08-28T11:07:00.423Z,12.40
2022-08-28T11:09:42.794Z,13.87
2022-08-28T11:12:17.290Z,11.77
2022-08-28T11:14:51.054Z,12.97
2022-08-28T11:17:22.862Z,12.63
2022-08-28T11:20:24.822Z,10.50
2022-08-28T11:23:00.183Z,11.87
2022-08-28T11:25:54.925Z,10.03
2022-08-28T11:28:36.509Z,10.63
2022-08-28T11:31:09.240Z,12.38
2022-08-28T11:33:44.563Z,9.97
2022-08-28T11:36:19.260Z,10.57
2022-08-28T11:38:57.701Z,12.70
2022-08-28T11:41:31.315Z,14.60
2022-08-28T11:44:09.111Z,12.00
2022-08-28T11:46:45.118Z,10.83
2022-08-28T11:49:29.151Z,11.53
2022-08-28T11:52:06.755Z,11.77
2022-08-28T11:54:53.771Z,11.57
2022-08-28T12:00:54.006Z,13.23
2022-08-28T12:04:04.976Z,14.15
2022-08-28T12:06:48.507Z,12.13
2022-08-28T12:09:26.296Z,12.90
2022-08-28T12:12:24.178Z,11.87
2022-08-28T12:14:55.916Z,12.43
2022-08-28T12:17:44.277Z,9.90
2022-08-28T12:20:25.038Z,11.37
2022-08-28T12:23:00.167Z,10.80
2022-08-28T12:25:37.632Z,10.63
2022-08-28T12:28:26.049Z,10.77
2022-08-28T12:31:13.348Z,11.33
2022-08-28T12:34:16.803Z,9.30
2022-08-28T12:37:00.025Z,10.03
2022-08-28T12:39:33.652Z,9.33
2022-08-28T12:42:14.518Z,10.37
2022-08-28T12:44:47.628Z,12.53
2022-08-28T12:47:22.870Z,9.87
2022-08-28T12:49:54.822Z,8.90
2022-08-28T12:52:27.202Z,10.07
2022-08-28T12:54:58.977Z,10.47
2022-08-28T12:57:30.739Z,9.88
2022-08-28T13:00:09.452Z,10.77
2022-08-28T13:02:42.096Z,11.70
2022-08-28T13:05:34.942Z,10.60
2022-08-28T13:08:10.657Z,11.13
2022-08-28T13:10:49.617Z,11.00
2022-08-28T13:13:27.987Z,11.13
2022-08-28T13:16:03.910Z,10.17
2022-08-28T13:18:50.257Z,9.90
2022-08-28T13:21:32.508Z,10.03
2022-08-28T13:24:23.896Z,10.43
2022-08-28T13:27:05.958Z,10.03
2022-08-28T13:29:40.598Z,10.37
2022-08-28T13:32:17.525Z,10.00
2022-08-28T13:35:21.825Z,10.80
2022-08-28T13:37:56.419Z,10.80
2022-08-28T13:43:41.723Z,10.23
2022-08-28T13:46:13.854Z,11.60
2022-08-28T13:48:45.668Z,14.97
2022-08-28T13:51:20.752Z,8.90
2022-08-28T13:53:53.722Z,9.88
2022-08-28T13:56:25.603Z,9.47
2022-08-28T13:58:57.677Z,14.80
2022-08-28T14:01:48.484Z,9.97
2022-08-28T14:04:20.286Z,10.70
2022-08-28T14:06:52.002Z,10.23
2022-08-28T14:09:23.848Z,10.30
2022-08-28T14:11:55.768Z,10.63
2022-08-28T14:14:27.494Z,9.67
2022-08-28T14:16:59.380Z,8.57
2022-08-28T14:19:31.238Z,10.47
2022-08-28T14:22:03.454Z,9.90
2022-08-28T14:24:35.239Z,10.40
2022-08-28T14:27:07.093Z,11.57
2022-08-28T14:29:38.884Z,10.77
2022-08-28T14:32:10.941Z,10.87
2022-08-28T14:34:43.565Z,11.70
2022-08-28T14:37:15.988Z,11.60
2022-08-28T14:39:48.382Z,10.93
2022-08-28T14:42:20.115Z,9.47
2022-08-28T14:44:52.175Z,10.80
2022-08-28T14:47:24.926Z,11.10
2022-08-28T14:49:56.683Z,9.70
2022-08-28T14:52:28.487Z,11.80
2022-08-28T14:55:00.242Z,10.60
2022-08-28T14:57:32.326Z,9.80
2022-08-28T15:00:04.870Z,9.90
2022-08-28T15:02:36.583Z,10.47
2022-08-28T15:05:08.711Z,9.47
2022-08-28T15:07:40.402Z,9.70
2022-08-28T15:10:13.390Z,9.37
2022-08-28T15:12:45.323Z,9.77
2022-08-28T15:15:20.247Z,11.00
2022-08-28T15:17:51.974Z,9.03
2022-08-28T15:20:23.696Z,10.20
2022-08-28T15:22:55.457Z,10.10
2022-08-28T15:25:27.230Z,9.87
2022-08-28T15:27:59.008Z,8.17
2022-08-28T15:30:30.852Z,8.97
2022-08-28T15:33:03.057Z,10.73
2022-08-28T15:35:37.052Z,9.70
2022-08-28T15:38:08.793Z,10.67
2022-08-28T15:40:59.380Z,9.60
2022-08-28T15:43:31.234Z,10.10
2022-08-28T15:46:12.016Z,9.70
2022-08-28T15:48:43.896Z,9.73
2022-08-28T15:51:16.539Z,9.57
2022-08-28T15:53:48.379Z,8.27
2022-08-28T15:56:20.402Z,8.20
2022-08-28T15:58:52.259Z,9.67
2022-08-28T16:01:24.068Z,9.57
2022-08-28T16:03:55.949Z,9.90
2022-08-28T16:06:28.951Z,10.77
2022-08-28T16:09:00.731Z,9.57
2022-08-28T16:11:33.724Z,9.83
2022-08-28T16:14:05.638Z,9.40
2022-08-28T16:16:37.738Z,9.93
2022-08-28T16:19:11.192Z,9.57
2022-08-28T16:21:43.106Z,9.30
2022-08-28T16:24:14.823Z,10.60
2022-08-28T16:26:46.622Z,8.90
2022-08-28T16:29:18.351Z,9.43
2022-08-28T16:31:50.140Z,9.63
2022-08-28T16:34:22.353Z,10.10
2022-08-28T16:36:54.111Z,11.30
2022-08-28T16:39:25.935Z,10.17
2022-08-28T16:41:57.922Z,9.60
2022-08-28T16:44:29.956Z,9.87
2022-08-28T16:47:01.791Z,9.13
2022-08-28T16:49:33.587Z,10.07
2022-08-28T16:52:05.351Z,10.17
2022-08-28T16:54:37.649Z,10.43
2022-08-28T16:57:20.820Z,10.90
2022-08-28T16:59:52.959Z,9.77
2022-08-28T17:02:26.373Z,10.27
2022-08-28T17:05:00.506Z,9.27
2022-08-28T17:07:32.393Z,10.73
2022-08-28T17:10:04.902Z,10.00
2022-08-28T17:12:36.647Z,9.87
2022-08-28T17:15:09.879Z,8.57
2022-08-28T17:17:43.211Z,9.33
2022-08-28T17:20:35.664Z,10.20
2022-08-28T17:23:07.584Z,15.43
2022-08-28T17:25:39.347Z,9.97
2022-08-28T17:28:11.126Z,10.97
2022-08-28T17:30:42.919Z,9.03
2022-08-28T17:33:14.675Z,9.10
2022-08-28T17:35:46.775Z,12.77
2022-08-28T17:38:24.390Z,10.05
2022-08-28T17:40:56.114Z,9.70
2022-08-28T17:43:27.917Z,9.53
2022-08-28T17:45:59.793Z,10.00
2022-08-28T17:48:32.643Z,9.03
2022-08-28T17:51:06.201Z,9.67
2022-08-28T17:53:38.063Z,10.83
2022-08-28T17:56:10.291Z,10.87
2022-08-28T17:58:42.132Z,12.93
2022-08-28T18:01:22.423Z,10.53
2022-08-28T18:03:55.430Z,9.73
2022-08-28T18:06:27.382Z,11.93
2022-08-28T18:08:59.351Z,8.93
2022-08-28T18:11:31.123Z,10.20
2022-08-28T18:14:03.105Z,10.60
2022-08-28T18:16:37.525Z,10.50
2022-08-28T18:19:11.060Z,10.40
2022-08-28T18:21:42.891Z,11.20
2022-08-28T18:24:14.812Z,10.17
2022-08-28T18:26:47.819Z,10.70
2022-08-28T18:29:19.592Z,10.40
2022-08-28T18:31:51.395Z,9.70
2022-08-28T18:34:23.180Z,10.48
2022-08-28T18:36:55.385Z,10.27
2022-08-28T18:39:29.682Z,10.23
2022-08-28T18:42:01.683Z,10.33
2022-08-28T18:44:33.981Z,10.87
2022-08-28T18:47:05.887Z,11.30
2022-08-28T18:49:37.608Z,14.73
2022-08-28T18:52:09.480Z,12.70
2022-08-28T18:54:41.253Z,11.43
2022-08-28T18:57:15.271Z,11.17
2022-08-28T18:59:47.437Z,11.83
2022-08-28T19:02:19.432Z,10.03
2022-08-28T19:04:51.327Z,10.70
2022-08-28T19:07:23.061Z,11.37
2022-08-28T19:09:57.894Z,12.33
2022-08-28T19:12:30.396Z,11.27
2022-08-28T19:15:02.151Z,11.00
2022-08-28T19:17:36.363Z,10.67
2022-08-28T19:20:16.790Z,11.57
2022-08-28T19:22:48.856Z,11.07
2022-08-28T19:25:28.544Z,11.23
2022-08-28T19:28:02.422Z,11.43
2022-08-28T19:30:34.719Z,10.90
2022-08-28T19:33:06.704Z,11.53
2022-08-28T19:35:38.522Z,12.60
2022-08-28T19:38:10.546Z,11.57
2022-08-28T19:40:42.839Z,13.13
2022-08-28T19:43:16.928Z,11.03
2022-08-28T19:45:49.132Z,11.60
2022-08-28T19:48:21.452Z,12.43
2022-08-28T19:51:04.195Z,11.17
2022-08-28T19:53:36.871Z,10.97
2022-08-28T19:56:09.094Z,12.07
2022-08-28T19:58:40.848Z,11.00
2022-08-28T20:01:12.719Z,12.17
2022-08-28T20:03:44.639Z,10.80
2022-08-28T20:06:16.666Z,13.23
2022-08-28T20:08:48.607Z,15.17
2022-08-28T20:11:24.868Z,10.60
2022-08-28T20:13:59.539Z,13.40
2022-08-28T20:16:34.854Z,11.37
2022-08-28T20:19:07.994Z,13.97
2022-08-28T20:21:42.643Z,13.07
2022-08-28T20:24:22.106Z,11.00
2022-08-28T20:26:53.980Z,11.60
2022-08-28T20:29:25.898Z,10.40
2022-08-28T20:31:57.664Z,9.97
2022-08-28T20:34:29.675Z,10.47
2022-08-28T20:37:01.903Z,10.30
2022-08-28T20:39:34.152Z,11.23
2022-08-28T20:42:06.333Z,10.97
2022-08-28T20:44:38.184Z,10.93
2022-08-28T20:47:10.475Z,15.50
2022-08-28T20:49:42.271Z,10.33
2022-08-28T20:52:14.185Z,11.70
2022-08-28T20:54:46.345Z,11.47
2022-08-28T20:57:21.317Z,10.97
2022-08-28T20:59:54.108Z,11.23
2022-08-28T21:02:28.258Z,12.83
2022-08-28T21:05:00.427Z,10.83
2022-08-28T21:07:33.999Z,10.20
2022-08-28T21:10:07.980Z,13.07
2022-08-28T21:12:40.122Z,11.90
2022-08-28T21:15:12.995Z,11.50
2022-08-28T21:17:44.765Z,11.87
2022-08-28T21:20:17.163Z,10.87
2022-08-28T21:22:49.486Z,11.50
2022-08-28T21:25:24.475Z,14.50
2022-08-28T21:27:56.246Z,12.60
2022-08-28T21:30:29.892Z,13.43
2022-08-28T21:33:01.754Z,10.50
2022-08-28T21:35:33.515Z,10.37
2022-08-28T21:38:05.266Z,12.50
2022-08-28T21:40:37.200Z,12.73
2022-08-28T21:43:09.226Z,11.07
2022-08-28T21:45:41.648Z,12.83
2022-08-28T21:48:13.561Z,12.27
2022-08-28T21:50:45.339Z,12.67
2022-08-28T21:53:17.178Z,11.47
2022-08-28T21:55:53.533Z,13.77
2022-08-28T21:58:25.335Z,10.57
2022-08-28T22:00:57.597Z,13.53
2022-08-28T22:03:29.847Z,12.03
2022-08-28T22:06:01.693Z,12.63
2022-08-28T22:08:33.471Z,11.97
2022-08-28T22:11:05.725Z,13.03
2022-08-28T22:13:37.979Z,11.50
2022-08-28T22:16:09.982Z,12.50
2022-08-28T22:18:42.026Z,12.37
2022-08-28T22:21:34.654Z,12.60
2022-08-28T22:24:07.219Z,12.40
2022-08-28T22:26:39.582Z,13.17
2022-08-28T22:29:12.051Z,10.87
2022-08-28T22:31:46.074Z,11.30
2022-08-28T22:34:18.498Z,15.77
2022-08-28T22:36:50.363Z,12.07
2022-08-28T22:39:22.211Z,10.83
2022-08-28T22:41:53.962Z,13.40
2022-08-28T22:44:25.712Z,12.07
2022-08-28T22:46:58.383Z,10.83
2022-08-28T22:49:30.212Z,14.60
2022-08-28T22:52:02.223Z,11.30
2022-08-28T22:54:33.964Z,10.90
2022-08-28T22:57:05.969Z,11.00
2022-08-28T22:59:38.639Z,10.10
2022-08-28T23:02:12.167Z,9.90
2022-08-28T23:04:44.286Z,17.40
2022-08-28T23:07:16.006Z,12.73
2022-08-28T23:09:47.740Z,11.10
2022-08-28T23:12:19.475Z,10.48
2022-08-28T23:14:51.269Z,9.97
2022-08-28T23:17:22.990Z,9.30
2022-08-28T23:19:56.034Z,13.50
2022-08-28T23:22:27.871Z,7.77
2022-08-28T23:24:59.999Z,8.30
2022-08-28T23:27:36.262Z,8.13
2022-08-28T23:30:08.869Z,8.07
2022-08-28T23:32:40.706Z,8.33
2022-08-28T23:35:16.047Z,9.50
2022-08-28T23:37:51.807Z,9.40
2022-08-28T23:40:25.231Z,9.40
2022-08-28T23:43:00.057Z,9.97
2022-08-28T23:45:32.071Z,17.40
2022-08-28T23:48:04.009Z,9.20
2022-08-28T23:50:39.633Z,9.73
2022-08-28T23:53:13.195Z,8.80
2022-08-28T23:55:49.326Z,8.20
2022-08-28T23:58:22.523Z,9.30
